Time;durP1;ratioP1;P1;durP2;ratioP2;P2;SDS_P1;SDS_P2;PMS_P1;PMS_P2;Temp;Humidity;BMP_temperature;BMP_pressure;BME280_temperature;BME280_humidity;BME280_pressure;Samples;Min_cycle;Max_cycle;Signal;HPM_P1;HPM_P2
2023/09/08 00:01:57;;;;;;;21.35;4.03;;;;;;;23.73;47.75;101234.75;5127637;28;20042;-85
2023/09/08 00:04:51;;;;;;;21.90;3.63;;;;;;;23.67;47.57;101230.75;5124276;28;20035;-84
2023/09/08 00:07:46;;;;;;;18.42;3.92;;;;;;;23.55;48.06;101228.34;5134278;28;20038;-84
2023/09/08 00:10:41;;;;;;;12.68;3.42;;;;;;;23.39;48.88;101228.66;5117448;28;20043;-85
2023/09/08 00:13:33;;;;;;;;;;;;;;;23.75;49.28;101237.94;5126177;28;20051;-85
2023/09/08 00:16:28;;;;;;;13.18;3.80;;;;;;;24.14;48.52;101226.09;5126738;28;19912;-84
2023/09/08 00:19:22;;;;;;;9.18;3.17;;;;;;;24.32;48.16;101224.19;5131513;28;20046;-85
2023/09/08 00:22:17;;;;;;;10.50;2.97;;;;;;;24.44;47.44;101228.53;5109921;28;20050;-84
2023/09/08 00:25:11;;;;;;;12.52;2.97;;;;;;;23.67;48.30;101233.53;5104027;28;20071;-86
2023/09/08 00:28:06;;;;;;;14.05;3.15;;;;;;;23.76;48.85;101233.19;5107967;28;20043;-86
2023/09/08 00:31:00;;;;;;;18.30;4.63;;;;;;;23.91;47.88;101228.47;5105794;28;20051;-86
2023/09/08 00:33:56;;;;;;;10.38;3.17;;;;;;;24.14;48.20;101223.31;5109052;28;20039;-85
2023/09/08 00:36:50;;;;;;;5.47;2.97;;;;;;;24.24;47.57;101217.00;5123529;28;20047;-85
2023/09/08 00:39:45;;;;;;;19.48;3.67;;;;;;;24.09;47.45;101229.28;5125748;28;20046;-84
2023/09/08 00:42:40;;;;;;;13.05;2.78;;;;;;;24.01;47.96;101225.69;5116334;28;20050;-84
2023/09/08 00:45:35;;;;;;;9.35;3.45;;;;;;;23.94;47.57;101216.53;5123847;28;20047;-85
2023/09/08 00:48:30;;;;;;;8.15;2.60;;;;;;;23.96;48.07;101216.97;5133468;28;20051;-85
2023/09/08 00:51:23;;;;;;;9.38;3.20;;;;;;;23.92;48.86;101216.97;5130551;28;20540;-85
2023/09/08 00:54:17;;;;;;;11.27;2.75;;;;;;;24.16;48.25;101205.09;5131582;28;20042;-85
2023/09/08 00:57:13;;;;;;;10.90;2.90;;;;;;;24.33;47.57;101200.72;5130247;28;20051;-85
2023/09/08 01:00:09;;;;;;;15.02;3.90;;;;;;;24.07;46.64;101204.69;5130806;28;20517;-85
2023/09/08 01:03:05;;;;;;;14.75;3.15;;;;;;;24.02;48.82;101207.06;5109713;28;20043;-85
2023/09/08 01:06:00;;;;;;;13.13;3.03;;;;;;;23.86;48.44;101205.44;5108711;28;20043;-84
2023/09/08 01:08:52;;;;;;;3.70;2.50;;;;;;;24.03;48.00;101203.06;5122631;28;20054;-83
2023/09/08 01:11:47;;;;;;;11.27;2.58;;;;;;;24.29;47.63;101202.72;5129618;28;20702;-84
2023/09/08 01:14:42;;;;;;;6.88;2.58;;;;;;;24.37;47.36;101207.09;5129605;28;20038;-85
2023/09/08 01:17:36;;;;;;;8.82;3.17;;;;;;;24.44;47.41;101206.28;5135381;28;20053;-84
2023/09/08 01:21:11;;;;;;;10.40;3.47;;;;;;;24.48;47.12;101205.09;5131048;28;20085;-85
2023/09/08 01:24:42;;;;;;;4.82;2.42;;;;;;;24.50;47.24;101199.94;5107654;28;20050;-86
2023/09/08 01:27:38;;;;;;;3.67;1.80;;;;;;;24.48;47.29;101190.44;5124746;28;20043;-85
2023/09/08 01:30:34;;;;;;;5.03;2.20;;;;;;;24.47;47.20;101197.97;5126587;28;20051;-85
2023/09/08 01:33:31;;;;;;;8.23;2.42;;;;;;;24.48;47.26;101193.97;5127568;28;20047;-86
2023/09/08 01:36:25;;;;;;;9.32;3.15;;;;;;;24.49;47.22;101189.22;5128027;28;20065;-85
2023/09/08 01:39:18;;;;;;;4.40;2.20;;;;;;;24.47;47.54;101186.84;5128014;28;20038;-85
2023/09/08 01:42:12;;;;;;;6.72;2.78;;;;;;;24.48;47.61;101180.06;5128579;28;20046;-85
2023/09/08 01:45:07;;;;;;;7.53;2.58;;;;;;;24.47;47.63;101178.50;5128654;28;20050;-85
2023/09/08 01:48:01;;;;;;;4.82;2.45;;;;;;;24.48;47.44;101176.53;5130630;28;20080;-85
2023/09/08 01:50:56;;;;;;;3.75;2.20;;;;;;;24.48;47.51;101184.88;5128194;28;20061;-84
2023/09/08 01:53:46;;;;;;;;;;;;;;;24.49;47.68;101180.88;5128106;28;20047;-86
2023/09/08 01:56:40;;;;;;;5.20;2.42;;;;;;;24.45;47.39;101175.31;5122625;28;19911;-85
2023/09/08 01:59:32;;;;;;;7.05;2.33;;;;;;;24.40;47.66;101172.94;5119847;28;20042;-85
2023/09/08 02:02:27;;;;;;;3.30;2.40;;;;;;;24.43;47.57;101168.59;5134381;28;20043;-85
2023/09/08 02:05:19;;;;;;;5.28;2.40;;;;;;;24.40;47.68;101170.16;5128105;28;20054;-85
2023/09/08 02:08:14;;;;;;;8.07;2.50;;;;;;;24.41;47.75;101170.94;5131443;28;20046;-85
2023/09/08 02:11:09;;;;;;;3.40;2.05;;;;;;;24.40;47.75;101170.16;5130760;28;20047;-85
2023/09/08 02:14:04;;;;;;;3.97;2.25;;;;;;;24.41;47.81;101168.97;5131346;28;20042;-84
2023/09/08 02:16:58;;;;;;;3.70;2.20;;;;;;;24.41;47.66;101168.16;5135012;28;20047;-85
2023/09/08 02:19:53;;;;;;;5.20;2.30;;;;;;;24.40;47.54;101161.81;5128540;28;20505;-85
2023/09/08 02:22:49;;;;;;;5.38;2.53;;;;;;;24.39;47.63;101165.78;5136109;28;20046;-85
2023/09/08 02:25:41;;;;;;;3.25;2.28;;;;;;;24.36;47.78;101158.25;5135255;28;20114;-85
2023/09/08 02:28:36;;;;;;;2.65;2.30;;;;;;;24.37;47.44;101157.06;5130300;28;20062;-85
2023/09/08 02:31:31;;;;;;;4.30;2.45;;;;;;;24.33;47.61;101156.25;5131693;28;20051;-85
2023/09/08 02:34:25;;;;;;;4.43;2.75;;;;;;;24.32;47.75;101159.44;5133993;28;20442;-84
2023/09/08 02:37:18;;;;;;;6.80;2.63;;;;;;;24.28;47.71;101156.66;5131883;28;20050;-84
2023/09/08 02:40:13;;;;;;;5.93;2.47;;;;;;;24.27;47.93;101149.53;5134321;28;20046;-84
2023/09/08 02:43:05;;;;;;;5.13;2.40;;;;;;;24.26;47.75;101157.06;5132677;28;20050;-84
2023/09/08 02:45:58;;;;;;;3.95;2.72;;;;;;;24.20;47.88;101153.09;5132651;28;20046;-84
2023/09/08 02:48:52;;;;;;;3.33;2.40;;;;;;;24.19;47.99;101159.03;5133860;28;20050;-85
2023/09/08 02:51:47;;;;;;;5.47;2.47;;;;;;;24.18;48.29;101157.44;5126979;28;20062;-85
2023/09/08 02:54:39;;;;;;;6.32;1.95;;;;;;;24.17;48.14;101153.91;5130036;28;20046;-85
2023/09/08 02:57:31;;;;;;;17.90;2.92;;;;;;;24.17;48.51;101158.66;5116305;28;20046;-85
2023/09/08 03:00:26;;;;;;;8.82;2.72;;;;;;;24.00;48.64;101153.84;5121439;28;20054;-85
2023/09/08 03:03:21;;;;;;;3.95;2.80;;;;;;;23.92;49.07;101155.03;5122460;28;20043;-87
2023/09/08 03:06:16;;;;;;;10.80;3.22;;;;;;;23.88;49.29;101155.00;5120491;28;20050;-85
2023/09/08 03:09:11;;;;;;;10.35;2.60;;;;;;;23.80;49.73;101161.75;5121159;28;20043;-85
2023/09/08 03:12:03;;;;;;;12.18;2.75;;;;;;;23.68;49.99;101164.91;5115115;27;20054;-84
2023/09/08 03:14:57;;;;;;;5.50;2.80;;;;;;;23.63;50.32;101157.75;5125164;28;20030;-85
2023/09/08 03:17:52;;;;;;;7.78;2.22;;;;;;;23.66;50.24;101156.19;5118930;28;20062;-83
2023/09/08 03:20:49;;;;;;;4.97;2.30;;;;;;;23.69;50.13;101155.38;5120456;28;20058;-83
2023/09/08 03:23:47;;;;;;;6.10;2.38;;;;;;;23.67;50.05;101161.31;5122710;28;20054;-83
2023/09/08 03:26:39;;;;;;;7.53;2.00;;;;;;;23.70;50.03;101168.09;5122805;28;20414;-83
2023/09/08 03:29:34;;;;;;;14.13;3.75;;;;;;;23.70;49.79;101157.78;5121284;28;20406;-83
2023/09/08 03:32:28;;;;;;;11.38;3.05;;;;;;;23.71;49.69;101164.13;5121333;28;20050;-84
2023/09/08 03:35:21;;;;;;;;;;;;;;;23.76;49.79;101172.88;5122439;28;20070;-84
2023/09/08 03:38:15;;;;;;;12.73;2.95;;;;;;;23.77;49.87;101166.09;5126047;28;19911;-83
2023/09/08 03:41:08;;;;;;;;;;;;;;;23.72;49.74;101165.72;5117226;28;20039;-83
2023/09/08 03:43:58;;;;;;;8.88;2.80;;;;;;;23.74;49.89;101169.69;5120257;28;19912;-84
2023/09/08 03:46:52;;;;;;;11.23;2.58;;;;;;;23.76;49.79;101170.09;5123910;28;20410;-83
2023/09/08 03:49:45;;;;;;;7.07;2.22;;;;;;;23.78;49.79;101175.25;5119192;27;20552;-83
2023/09/08 03:52:39;;;;;;;8.20;2.78;;;;;;;23.78;49.81;101164.94;5125603;28;20047;-84
2023/09/08 03:55:34;;;;;;;7.93;3.05;;;;;;;23.80;49.51;101161.75;5121107;28;20047;-82
2023/09/08 03:58:28;;;;;;;7.18;2.50;;;;;;;23.78;49.93;101155.78;5117989;28;20054;-83
2023/09/08 04:01:23;;;;;;;9.07;2.95;;;;;;;23.74;49.53;101158.56;5121501;28;20047;-83
2023/09/08 04:04:17;;;;;;;7.18;3.20;;;;;;;23.75;49.51;101160.16;5122378;28;20733;-83
2023/09/08 04:07:10;;;;;;;;;;;;;;;23.76;49.41;101153.44;5126310;28;20047;-83
2023/09/08 04:10:02;;;;;;;5.47;2.78;;;;;;;23.71;49.28;101153.81;5121870;28;19912;-81
2023/09/08 04:12:57;;;;;;;6.38;2.88;;;;;;;23.71;49.31;101145.50;5103147;28;20047;-83
2023/09/08 04:15:49;;;;;;;5.95;2.75;;;;;;;23.70;49.15;101140.31;5111061;28;20438;-84
2023/09/08 04:18:44;;;;;;;13.13;3.05;;;;;;;23.70;49.17;101152.22;5105709;28;20046;-82
2023/09/08 04:21:38;;;;;;;10.70;2.67;;;;;;;23.67;49.39;101150.22;5104067;28;20314;-82
2023/09/08 04:24:36;;;;;;;8.27;2.70;;;;;;;23.66;49.12;101151.44;5107944;28;20816;-81
2023/09/08 04:27:32;;;;;;;12.13;2.80;;;;;;;23.67;49.38;101155.78;5120692;27;20430;-82
2023/09/08 04:30:26;;;;;;;12.00;2.88;;;;;;;23.67;49.37;101155.78;5119199;28;20070;-82
2023/09/08 04:33:18;;;;;;;12.55;3.05;;;;;;;23.68;49.44;101162.13;5118813;28;20054;-82
2023/09/08 04:36:10;;;;;;;5.63;2.78;;;;;;;23.67;49.26;101169.66;5118940;28;20043;-81
2023/09/08 04:39:05;;;;;;;6.13;2.72;;;;;;;23.70;49.21;101168.09;5119777;28;20046;-82
2023/09/08 04:41:59;;;;;;;9.02;3.10;;;;;;;23.65;49.29;101155.38;5114991;28;20051;-82
2023/09/08 04:44:54;;;;;;;25.58;3.65;;;;;;;23.60;49.54;101166.88;5110202;28;20129;-82
2023/09/08 04:47:46;;;;;;;;;;;;;;;23.63;49.40;101159.72;5121991;28;20046;-84
2023/09/08 04:50:41;;;;;;;7.03;3.33;;;;;;;23.60;49.31;101169.66;5118735;28;19911;-84
2023/09/08 04:53:36;;;;;;;9.05;2.80;;;;;;;23.59;49.20;101172.81;5122946;28;20043;-84
2023/09/08 04:56:30;;;;;;;15.05;2.85;;;;;;;23.54;49.66;101165.66;5120323;28;20050;-84
2023/09/08 04:59:23;;;;;;;9.90;2.75;;;;;;;23.51;49.87;101168.44;5122141;27;20038;-84
2023/09/08 05:02:18;;;;;;;18.75;3.45;;;;;;;23.49;50.33;101168.81;5119301;27;20039;-84
2023/09/08 05:05:13;;;;;;;7.32;2.70;;;;;;;23.42;50.37;101163.22;5116585;28;20054;-84
2023/09/08 05:08:05;;;;;;;9.73;3.22;;;;;;;23.36;50.60;101173.13;5102905;28;20066;-85
2023/09/08 05:11:00;;;;;;;6.30;3.17;;;;;;;23.38;50.74;101176.28;5122575;28;20438;-83
2023/09/08 05:13:54;;;;;;;5.22;3.03;;;;;;;23.39;50.12;101175.09;5121164;27;20824;-84
2023/09/08 05:16:49;;;;;;;14.40;3.08;;;;;;;23.37;50.34;101183.03;5121989;27;20136;-84
2023/09/08 05:19:41;;;;;;;;;;;;;;;23.36;50.48;101176.69;5119568;28;20619;-83
2023/09/08 05:22:36;;;;;;;16.58;3.45;;;;;;;23.22;50.56;101173.84;5121206;28;19919;-84
2023/09/08 05:25:32;;;;;;;11.40;4.10;;;;;;;23.00;51.58;101175.75;5120463;28;20047;-84
2023/09/08 05:28:27;;;;;;;6.03;4.28;;;;;;;22.72;52.45;101172.78;5123326;28;20047;-84
2023/09/08 05:31:22;;;;;;;10.38;3.15;;;;;;;22.88;52.03;101173.28;5119804;28;20046;-85
2023/09/08 05:34:16;;;;;;;7.28;3.20;;;;;;;22.56;52.78;101177.78;5118739;28;20045;-84
2023/09/08 05:37:11;;;;;;;11.15;3.70;;;;;;;22.38;53.37;101171.34;5117819;27;20047;-84
2023/09/08 05:40:05;;;;;;;5.65;2.42;;;;;;;22.57;53.45;101179.38;5113183;28;20047;-85
2023/09/08 05:42:58;;;;;;;;;;;;;;;22.82;53.05;101180.38;5103447;28;20406;-85
2023/09/08 05:45:52;;;;;;;12.25;3.05;;;;;;;23.08;52.24;101186.84;5101016;28;19916;-85
2023/09/08 05:48:47;;;;;;;8.13;2.92;;;;;;;23.24;51.94;101188.13;5116670;28;20038;-84
2023/09/08 05:51:39;;;;;;;6.15;2.67;;;;;;;23.24;51.80;101196.47;5118411;28;20047;-84
2023/09/08 05:54:34;;;;;;;10.68;3.72;;;;;;;23.35;51.44;101194.53;5119823;28;20046;-85
2023/09/08 05:57:29;;;;;;;6.75;3.28;;;;;;;23.33;51.80;101190.53;5118286;28;20054;-83
2023/09/08 06:00:24;;;;;;;5.78;2.72;;;;;;;23.49;51.33;101187.47;5120810;28;20054;-85
2023/09/08 06:03:19;;;;;;;4.47;2.95;;;;;;;23.59;51.22;101181.16;5118838;28;20410;-84
2023/09/08 06:06:13;;;;;;;7.10;2.58;;;;;;;23.67;51.09;101175.22;5117519;28;20067;-84
2023/09/08 06:09:08;;;;;;;9.85;3.05;;;;;;;23.78;50.99;101178.00;5118677;28;20034;-86
2023/09/08 06:12:02;;;;;;;10.48;3.15;;;;;;;23.85;51.01;101180.81;5111057;28;20042;-86
2023/09/08 06:14:57;;;;;;;10.32;3.15;;;;;;;23.97;50.60;101188.78;5120057;28;20054;-87
2023/09/08 06:17:52;;;;;;;8.18;2.60;;;;;;;24.12;50.68;101187.63;5098627;28;20046;-86
2023/09/08 06:20:54;;;;;;;11.80;3.13;;;;;;;24.16;51.07;101182.84;5099767;28;20043;-86
2023/09/08 06:23:49;;;;;;;19.50;3.47;;;;;;;24.37;50.27;101195.19;5106929;28;20047;-87
2023/09/08 06:26:41;;;;;;;10.52;3.00;;;;;;;24.54;50.16;101194.38;5108928;27;20046;-89
2023/09/08 06:29:36;;;;;;;14.25;4.13;;;;;;;24.89;49.11;101201.91;5114074;27;20051;-87
2023/09/08 06:32:28;;;;;;;17.58;2.88;;;;;;;25.21;48.08;101194.25;5126272;28;20529;-87
2023/09/08 06:35:23;;;;;;;12.85;3.15;;;;;;;25.53;47.24;101199.69;5121824;28;20035;-87
2023/09/08 06:38:15;;;;;;;8.07;3.45;;;;;;;25.33;47.75;101195.81;5124974;28;20062;-85
2023/09/08 06:41:13;;;;;;;14.82;3.10;;;;;;;25.29;48.28;101206.19;5116800;28;20042;-85
2023/09/08 06:44:02;;;;;;;20.40;3.90;;;;;;;25.57;47.64;101205.28;5124086;28;20528;-89
2023/09/08 06:46:55;;;;;;;13.75;3.72;;;;;;;25.63;47.50;101189.72;5107069;28;20048;-88
2023/09/08 06:49:47;;;;;;;14.40;3.47;;;;;;;26.45;45.81;101199.13;5125457;28;20043;-89
2023/09/08 06:52:39;;;;;;;8.80;3.25;;;;;;;26.10;46.39;101202.97;5119930;28;20047;-88
2023/09/08 06:55:34;;;;;;;23.63;3.92;;;;;;;26.34;46.37;101188.06;5113685;28;20039;-88
2023/09/08 06:58:23;;;;;;;18.02;3.75;;;;;;;26.69;46.01;101200.88;5114306;28;20114;-87
2023/09/08 07:01:13;;;;;;;19.25;3.63;;;;;;;26.79;45.46;101202.78;5119958;28;20043;-88
2023/09/08 07:04:07;;;;;;;13.38;4.05;;;;;;;27.85;42.75;101205.50;5114394;27;20046;-87
2023/09/08 07:06:59;;;;;;;;;;;;;;;28.13;41.55;101201.53;5120686;28;20055;-87
2023/09/08 07:09:54;;;;;;;19.65;3.20;;;;;;;28.11;41.94;101207.53;5127537;28;19919;-86
2023/09/08 07:12:49;;;;;;;17.65;4.40;;;;;;;28.52;43.04;101204.47;5116913;28;20058;-86
2023/09/08 07:15:41;;;;;;;;;;;;;;;28.44;42.30;101203.78;5120875;28;20046;-87
2023/09/08 07:18:35;;;;;;;21.25;3.80;;;;;;;29.15;40.98;101202.53;5111886;28;20392;-81
2023/09/08 07:21:30;;;;;;;12.98;3.15;;;;;;;30.25;38.62;101208.53;5117240;28;20046;-82
2023/09/08 07:24:24;;;;;;;15.05;3.20;;;;;;;31.42;36.17;101213.84;5117515;28;20698;-82
2023/09/08 07:27:19;;;;;;;13.45;3.42;;;;;;;32.71;33.90;101203.72;5126919;28;20054;-82
2023/09/08 07:30:14;;;;;;;16.95;4.75;;;;;;;33.52;34.19;101214.03;5118100;28;20038;-81
2023/09/08 07:33:05;;;;;;;13.88;3.55;;;;;;;35.37;30.10;101216.34;5116126;27;21672;-83
2023/09/08 07:36:04;;;;;;;8.05;2.80;;;;;;;36.17;29.46;101218.59;5120366;28;20035;-82
2023/09/08 07:38:59;;;;;;;7.00;3.35;;;;;;;37.92;27.77;101225.91;5117572;28;20598;-82
2023/09/08 07:41:54;;;;;;;17.42;3.95;;;;;;;38.76;25.32;101232.75;5109527;28;20097;-82
2023/09/08 07:44:48;;;;;;;25.00;3.35;;;;;;;39.59;23.76;101230.84;5118619;28;20505;-81
2023/09/08 07:47:43;;;;;;;20.00;4.40;;;;;;;32.40;32.86;101226.06;5118571;28;20047;-83
2023/09/08 07:50:35;;;;;;;24.65;3.88;;;;;;;28.61;40.06;101207.50;5118133;28;20047;-82
2023/09/08 07:53:30;;;;;;;19.20;3.80;;;;;;;26.96;44.07;101205.84;5119526;28;20410;-82
2023/09/08 07:56:25;;;;;;;18.13;4.05;;;;;;;26.38;45.46;101211.13;5143977;27;20046;-82
2023/09/08 07:59:17;;;;;;;;;;;;;;;26.20;45.90;101210.47;5123455;27;20058;-82
2023/09/08 08:02:11;;;;;;;8.57;3.03;;;;;;;25.77;46.91;101211.94;5113907;28;19911;-82
2023/09/08 08:05:03;;;;;;;11.52;3.08;;;;;;;25.69;47.18;101204.81;5112810;28;20070;-82
2023/09/08 08:07:58;;;;;;;6.45;3.00;;;;;;;25.45;47.66;101214.84;5116829;28;20572;-82
2023/09/08 08:10:50;;;;;;;;;;;;;;;25.46;47.78;101208.06;5118570;28;20409;-82
2023/09/08 08:13:42;;;;;;;7.28;2.78;;;;;;;25.54;47.20;101210.44;5117719;28;19911;-82
2023/09/08 08:16:36;;;;;;;8.05;2.70;;;;;;;25.53;47.31;101211.63;5110599;28;20043;-82
2023/09/08 08:19:26;;;;;;;;;;;;;;;25.45;47.48;101210.06;5113074;28;20164;-82
2023/09/08 08:22:20;;;;;;;16.02;3.08;;;;;;;25.29;47.87;101204.19;5111616;28;20298;-83
2023/09/08 08:25:13;;;;;;;20.15;2.72;;;;;;;25.64;46.78;101202.47;5113212;28;20051;-83
2023/09/08 08:28:07;;;;;;;6.95;2.15;;;;;;;25.63;47.02;101204.44;5116508;28;20051;-82
2023/09/08 08:30:57;;;;;;;3.88;2.28;;;;;;;25.70;46.07;101206.41;5112304;28;20042;-82
2023/09/08 08:33:52;;;;;;;7.53;2.28;;;;;;;25.81;46.31;101204.34;5123079;28;20047;-82
2023/09/08 08:36:46;;;;;;;8.38;2.20;;;;;;;26.08;45.13;101199.78;5116905;28;20058;-82
2023/09/08 08:39:40;;;;;;;3.65;2.20;;;;;;;25.79;46.14;101201.19;5117786;28;20047;-82
2023/09/08 08:42:35;;;;;;;4.10;2.63;;;;;;;25.61;46.53;101200.47;5118097;28;20070;-83
2023/09/08 08:45:32;;;;;;;10.68;2.67;;;;;;;25.50;46.86;101198.50;5119110;28;20047;-83
2023/09/08 08:48:24;;;;;;;4.30;2.30;;;;;;;25.56;46.37;101198.91;5118595;28;20410;-83
2023/09/08 08:51:17;;;;;;;;;;;;;;;25.71;46.21;101194.03;5119343;28;20360;-83
2023/09/08 08:54:10;;;;;;;3.72;2.17;;;;;;;25.70;46.07;101189.69;5117856;28;19915;-83
2023/09/08 08:57:02;;;;;;;6.97;2.17;;;;;;;25.87;45.40;101188.78;5118359;28;20039;-82
2023/09/08 08:59:55;;;;;;;12.25;2.85;;;;;;;25.89;45.42;101189.97;5109683;27;20054;-82
2023/09/08 09:02:52;;;;;;;7.90;2.80;;;;;;;25.55;46.31;101178.59;5108597;28;20038;-82
2023/09/08 09:05:45;;;;;;;9.80;2.70;;;;;;;25.37;46.58;101185.44;5115082;28;20042;-82
2023/09/08 09:08:36;;;;;;;12.02;2.65;;;;;;;25.36;46.61;101183.84;5117292;28;20055;-82
2023/09/08 09:11:31;;;;;;;7.47;2.70;;;;;;;25.44;46.28;101180.66;5117765;28;20105;-82
2023/09/08 09:14:23;;;;;;;4.97;2.08;;;;;;;25.52;46.16;101182.19;5120006;28;20047;-82
2023/09/08 09:17:12;;;;;;;5.25;2.60;;;;;;;25.45;46.13;101179.44;5110780;28;20047;-82
2023/09/08 09:20:18;;;;;;;6.03;2.58;;;;;;;25.62;45.67;101174.19;5120461;28;20042;-82
2023/09/08 09:23:10;;;;;;;;;;;;;;;26.02;44.42;101175.53;5118997;28;20054;-82
2023/09/08 09:26:03;;;;;;;5.22;2.28;;;;;;;26.11;44.29;101181.47;5117616;27;19916;-81
2023/09/08 09:28:55;;;;;;;3.28;2.17;;;;;;;26.04;44.64;101182.28;5117729;28;20066;-82
2023/09/08 09:32:05;;;;;;;3.60;2.10;;;;;;;25.95;44.81;101174.41;5117116;28;20038;-82
2023/09/08 09:34:56;;;;;;;4.78;2.42;;;;;;;25.90;44.87;101179.63;5118657;28;20556;-82
2023/09/08 09:37:49;;;;;;;4.32;2.67;;;;;;;25.99;44.59;101174.38;5117767;28;20043;-82
2023/09/08 09:40:42;;;;;;;5.82;2.80;;;;;;;25.60;45.52;101173.84;5120585;28;20509;-82
2023/09/08 09:43:33;;;;;;;3.75;2.15;;;;;;;25.41;45.90;101167.50;5117572;28;20046;-82
2023/09/08 09:46:29;;;;;;;5.57;2.40;;;;;;;25.44;45.79;101169.50;5117541;28;20153;-82
2023/09/08 09:49:27;;;;;;;6.47;2.70;;;;;;;25.39;46.17;101163.56;5120129;28;20513;-82
2023/09/08 09:52:25;;;;;;;4.55;2.65;;;;;;;25.21;46.66;101155.28;5108653;28;20043;-82
2023/09/08 09:55:15;;;;;;;7.00;2.45;;;;;;;25.09;46.67;101159.28;5116066;27;20417;-82
2023/09/08 09:58:09;;;;;;;6.13;2.72;;;;;;;24.99;46.85;101154.56;5112470;28;20113;-81
2023/09/08 10:01:02;;;;;;;5.95;2.63;;;;;;;25.07;46.95;101150.56;5106804;28;20042;-83
2023/09/08 10:03:58;;;;;;;8.05;3.05;;;;;;;25.20;46.36;101159.25;5111993;28;20046;-82
2023/09/08 10:06:53;;;;;;;14.15;3.88;;;;;;;25.29;45.87;101142.94;5096250;28;20082;-81
2023/09/08 10:09:47;;;;;;;5.90;3.22;;;;;;;25.61;45.03;101133.59;5096674;28;20063;-82
2023/09/08 10:12:45;;;;;;;8.18;2.85;;;;;;;26.11;43.17;101136.84;5097277;28;20047;-82
2023/09/08 10:15:38;;;;;;;10.02;2.60;;;;;;;26.52;41.90;101142.47;5097107;28;20047;-81
2023/09/08 10:18:32;;;;;;;5.93;3.15;;;;;;;26.67;41.44;101139.09;5115183;28;20035;-82
2023/09/08 10:21:31;;;;;;;8.75;2.95;;;;;;;27.25;39.36;101134.47;5115652;28;20074;-82
2023/09/08 10:24:28;;;;;;;9.88;2.63;;;;;;;26.56;42.04;101137.66;5096504;28;20047;-82
2023/09/08 10:27:21;;;;;;;12.38;3.35;;;;;;;26.20;42.52;101126.81;5108815;28;20402;-82
2023/09/08 10:30:16;;;;;;;7.45;3.10;;;;;;;26.12;42.98;101130.84;5131218;27;20043;-82
2023/09/08 10:33:09;;;;;;;4.25;2.35;;;;;;;26.09;42.99;101119.72;5117344;28;20703;-82
2023/09/08 10:36:03;;;;;;;4.72;2.83;;;;;;;26.16;42.46;101120.44;5107767;28;20039;-82
2023/09/08 10:38:54;;;;;;;12.82;2.72;;;;;;;26.14;42.05;101122.88;5112932;28;20051;-82
2023/09/08 10:41:46;;;;;;;3.58;2.17;;;;;;;26.93;38.19;101122.91;5112834;28;20038;-82
2023/09/08 10:44:40;;;;;;;5.03;2.83;;;;;;;27.11;38.91;101115.13;5119781;28;20426;-82
2023/09/08 10:47:56;;;;;;;3.80;2.43;;;;;;;27.55;36.87;101116.91;5111743;28;20051;-81
2023/09/08 10:50:50;;;;;;;8.13;2.30;;;;;;;27.24;38.72;101118.91;5111561;28;20798;-82
2023/09/08 10:53:44;;;;;;;8.25;2.60;;;;;;;27.10;39.19;101108.72;5107051;28;20529;-82
2023/09/08 10:57:13;;;;;;;10.82;2.45;;;;;;;26.69;39.47;101113.59;5115959;28;20525;-82
2023/09/08 11:00:12;;;;;;;3.55;2.17;;;;;;;26.75;37.11;101109.94;5073720;28;20051;-82
2023/09/08 11:03:06;;;;;;;3.83;2.40;;;;;;;26.49;40.41;101113.41;5109389;28;20038;-83
2023/09/08 11:06:00;;;;;;;;;;;;;;;26.43;40.17;101111.47;5112993;28;20047;-82
2023/09/08 11:08:55;;;;;;;5.22;2.33;;;;;;;26.66;39.16;101112.44;5109148;28;19916;-81
2023/09/08 11:11:49;;;;;;;4.13;2.58;;;;;;;26.67;38.99;101110.41;5116456;28;20047;-82
2023/09/08 11:14:41;;;;;;;5.70;2.15;;;;;;;26.29;39.66;101102.06;5115323;28;20066;-81
2023/09/08 11:17:41;;;;;;;6.82;2.58;;;;;;;26.01;41.11;101105.03;5109575;28;20046;-82
2023/09/08 11:20:33;;;;;;;6.25;2.20;;;;;;;25.93;41.92;101092.38;5109871;28;20047;-82
2023/09/08 11:23:29;;;;;;;13.25;1.92;;;;;;;25.81;42.03;101085.31;5119155;28;20047;-80
2023/09/08 11:26:23;;;;;;;3.20;2.08;;;;;;;26.06;42.03;101098.25;5114901;28;20061;-80
2023/09/08 11:29:15;;;;;;;;;;;;;;;25.96;42.38;101099.91;5120388;28;20054;-81
2023/09/08 11:32:11;;;;;;;4.15;3.00;;;;;;;25.98;42.51;101103.09;5121093;28;19911;-81
2023/09/08 11:35:10;;;;;;;12.95;2.80;;;;;;;26.01;42.97;101110.63;5120138;28;20528;-80
2023/09/08 11:38:08;;;;;;;9.32;2.67;;;;;;;26.10;42.81;101105.38;5110547;28;20088;-81
2023/09/08 11:41:03;;;;;;;3.60;2.47;;;;;;;26.19;42.78;101105.69;5121171;28;20050;-80
2023/09/08 11:43:53;;;;;;;6.47;3.38;;;;;;;26.75;40.90;101097.97;5122375;28;20109;-80
2023/09/08 11:46:48;;;;;;;3.28;2.58;;;;;;;26.81;41.06;101093.53;5118541;28;20039;-81
2023/09/08 11:49:46;;;;;;;4.03;2.58;;;;;;;26.55;41.92;101091.44;5123099;28;20071;-81
2023/09/08 11:52:40;;;;;;;3.28;2.33;;;;;;;26.25;42.42;101098.50;5111005;28;20042;-81
2023/09/08 11:55:32;;;;;;;;;;;;;;;26.05;43.29;101099.47;5112243;28;20059;-81
2023/09/08 11:58:26;;;;;;;4.82;2.10;;;;;;;26.02;43.29;101089.91;5113481;28;19919;-80
2023/09/08 12:01:21;;;;;;;3.65;2.20;;;;;;;25.87;43.79;101089.25;5110677;28;20035;-81
2023/09/08 12:04:21;;;;;;;4.57;2.70;;;;;;;25.85;44.08;101085.31;5118000;28;20042;-80
2023/09/08 12:07:19;;;;;;;5.25;2.90;;;;;;;25.98;43.87;101087.16;5099051;28;20043;-81
2023/09/08 12:10:13;;;;;;;4.05;2.90;;;;;;;25.78;44.41;101080.56;5103961;28;20537;-80
2023/09/08 12:13:08;;;;;;;7.65;3.03;;;;;;;25.78;44.09;101074.19;5112196;28;20058;-80
2023/09/08 12:16:00;;;;;;;;;;;;;;;25.51;45.21;101069.19;5119389;28;20039;-81
2023/09/08 12:18:55;;;;;;;6.35;2.40;;;;;;;25.63;44.72;101069.94;5098964;28;19915;-81
2023/09/08 12:22:00;;;;;;;4.30;1.95;;;;;;;25.62;44.70;101066.34;5111464;28;20041;-81
2023/09/08 12:25:01;;;;;;;4.85;2.33;;;;;;;25.86;44.09;101061.78;5118772;28;20043;-81
2023/09/08 12:27:52;;;;;;;4.72;2.67;;;;;;;25.92;43.83;101065.72;5117950;28;20042;-81
2023/09/08 12:30:47;;;;;;;7.50;3.28;;;;;;;25.63;44.69;101053.22;5114418;28;20050;-80
2023/09/08 12:33:42;;;;;;;11.48;3.00;;;;;;;25.54;44.84;101057.25;5118904;28;20046;-81
2023/09/08 12:36:37;;;;;;;6.40;2.92;;;;;;;25.67;44.58;101052.00;5123243;27;20049;-80
2023/09/08 12:39:32;;;;;;;5.32;2.70;;;;;;;25.95;43.57;101059.34;5136671;27;20054;-81
2023/09/08 12:42:30;;;;;;;14.43;3.40;;;;;;;25.96;43.55;101049.75;5118928;28;20054;-80
2023/09/08 12:45:24;;;;;;;10.80;3.03;;;;;;;26.11;43.30;101044.84;5119225;28;20043;-81
2023/09/08 12:48:16;;;;;;;23.15;3.33;;;;;;;26.29;42.87;101046.28;5118623;28;20039;-80
2023/09/08 12:51:11;;;;;;;6.88;3.15;;;;;;;26.06;43.08;101037.69;5120007;28;20043;-81
2023/09/08 12:54:05;;;;;;;13.70;2.88;;;;;;;26.18;43.20;101037.19;5097348;28;20043;-80
2023/09/08 12:56:57;;;;;;;5.10;2.50;;;;;;;25.99;43.24;101048.94;5098363;28;20525;-81
2023/09/08 12:59:51;;;;;;;7.72;2.60;;;;;;;26.61;41.37;101036.75;5096917;28;20043;-81
2023/09/08 13:02:44;;;;;;;5.63;2.78;;;;;;;26.55;41.68;101038.44;5098335;28;20067;-81
2023/09/08 13:05:39;;;;;;;4.00;2.17;;;;;;;26.24;42.20;101030.00;5113439;28;20051;-82
2023/09/08 13:08:34;;;;;;;3.90;2.78;;;;;;;26.41;41.89;101022.66;5118640;28;20051;-82
2023/09/08 13:11:28;;;;;;;6.97;3.08;;;;;;;26.09;42.30;101024.94;5118706;28;20054;-82
2023/09/08 13:14:18;;;;;;;;;;;;;;;26.20;42.41;101015.28;5118191;28;20113;-82
2023/09/08 13:17:13;;;;;;;4.20;2.50;;;;;;;26.07;42.56;101025.34;5118663;28;19911;-82
2023/09/08 13:20:03;;;;;;;8.55;4.10;;;;;;;26.22;43.02;101018.47;5122746;28;20054;-83
2023/09/08 13:22:57;;;;;;;7.25;3.22;;;;;;;26.13;43.16;101014.53;5123346;28;20055;-82
2023/09/08 13:25:47;;;;;;;;;;;;;;;26.26;43.23;101015.66;5124720;28;20038;-82
2023/09/08 13:28:41;;;;;;;6.95;2.75;;;;;;;26.20;43.92;101012.50;5122694;28;19912;-82
2023/09/08 13:31:36;;;;;;;8.40;2.42;;;;;;;25.95;44.55;101007.19;5125909;28;20042;-81
2023/09/08 13:34:28;;;;;;;6.47;3.08;;;;;;;26.14;43.91;101005.78;5125682;28;20047;-81